sensor_id;sensor_type;location;lat;lon;timestamp;P1;durP1;ratioP1;P2;durP2;ratioP2
70975;SDS011;58635;51.198;6.010;2023-04-24T00:01:27;5.78;;;3.35;;
70975;SDS011;58635;51.198;6.010;2023-04-24T00:03:54;5.65;;;3.42;;
70975;SDS011;58635;51.198;6.010;2023-04-24T00:06:24;7.30;;;4.00;;
70975;SDS011;58635;51.198;6.010;2023-04-24T00:09:01;5.43;;;3.38;;
70975;SDS011;58635;51.198;6.010;2023-04-24T00:11:26;4.90;;;3.45;;
70975;SDS011;58635;51.198;6.010;2023-04-24T00:13:52;6.70;;;3.85;;
70975;SDS011;58635;51.198;6.010;2023-04-24T00:16:17;7.53;;;3.97;;
70975;SDS011;58635;51.198;6.010;2023-04-24T00:18:43;7.00;;;4.10;;
70975;SDS011;58635;51.198;6.010;2023-04-24T00:21:10;5.95;;;4.03;;
70975;SDS011;58635;51.198;6.010;2023-04-24T00:23:35;7.50;;;4.63;;
70975;SDS011;58635;51.198;6.010;2023-04-24T00:26:01;7.38;;;4.25;;
70975;SDS011;58635;51.198;6.010;2023-04-24T00:28:27;6.35;;;4.57;;
70975;SDS011;58635;51.198;6.010;2023-04-24T00:30:53;8.13;;;5.00;;
70975;SDS011;58635;51.198;6.010;2023-04-24T00:33:18;10.10;;;5.40;;
70975;SDS011;58635;51.198;6.010;2023-04-24T00:35:44;8.07;;;5.20;;
70975;SDS011;58635;51.198;6.010;2023-04-24T00:38:10;8.30;;;5.15;;
70975;SDS011;58635;51.198;6.010;2023-04-24T00:40:35;9.23;;;5.50;;
70975;SDS011;58635;51.198;6.010;2023-04-24T00:43:00;11.63;;;5.25;;
70975;SDS011;58635;51.198;6.010;2023-04-24T00:45:26;9.20;;;4.60;;
70975;SDS011;58635;51.198;6.010;2023-04-24T00:47:52;10.70;;;5.38;;
70975;SDS011;58635;51.198;6.010;2023-04-24T00:50:18;7.65;;;4.80;;
70975;SDS011;58635;51.198;6.010;2023-04-24T00:52:44;10.70;;;5.15;;
70975;SDS011;58635;51.198;6.010;2023-04-24T00:55:10;8.98;;;4.88;;
70975;SDS011;58635;51.198;6.010;2023-04-24T00:57:36;6.82;;;5.03;;
70975;SDS011;58635;51.198;6.010;2023-04-24T01:00:02;7.93;;;4.85;;
70975;SDS011;58635;51.198;6.010;2023-04-24T01:02:30;7.72;;;4.63;;
70975;SDS011;58635;51.198;6.010;2023-04-24T01:04:59;8.80;;;5.35;;
70975;SDS011;58635;51.198;6.010;2023-04-24T01:07:26;9.00;;;5.30;;
70975;SDS011;58635;51.198;6.010;2023-04-24T01:09:52;6.15;;;4.90;;
70975;SDS011;58635;51.198;6.010;2023-04-24T01:12:18;10.27;;;6.20;;
70975;SDS011;58635;51.198;6.010;2023-04-24T01:14:44;8.52;;;5.85;;
70975;SDS011;58635;51.198;6.010;2023-04-24T01:17:11;9.02;;;6.88;;
70975;SDS011;58635;51.198;6.010;2023-04-24T01:19:37;9.88;;;6.60;;
70975;SDS011;58635;51.198;6.010;2023-04-24T01:22:03;10.85;;;7.00;;
70975;SDS011;58635;51.198;6.010;2023-04-24T01:24:33;14.35;;;7.10;;
70975;SDS011;58635;51.198;6.010;2023-04-24T01:26:59;11.02;;;7.15;;
70975;SDS011;58635;51.198;6.010;2023-04-24T01:29:26;12.63;;;7.03;;
70975;SDS011;58635;51.198;6.010;2023-04-24T01:31:52;10.70;;;7.18;;
70975;SDS011;58635;51.198;6.010;2023-04-24T01:34:17;14.02;;;7.60;;
70975;SDS011;58635;51.198;6.010;2023-04-24T01:36:43;13.60;;;8.05;;
70975;SDS011;58635;51.198;6.010;2023-04-24T01:39:11;10.90;;;7.53;;
70975;SDS011;58635;51.198;6.010;2023-04-24T01:41:37;14.55;;;7.55;;
70975;SDS011;58635;51.198;6.010;2023-04-24T01:44:03;11.50;;;7.80;;
70975;SDS011;58635;51.198;6.010;2023-04-24T01:46:28;12.20;;;8.32;;
70975;SDS011;58635;51.198;6.010;2023-04-24T01:48:55;12.45;;;7.90;;
70975;SDS011;58635;51.198;6.010;2023-04-24T01:51:21;14.30;;;8.68;;
70975;SDS011;58635;51.198;6.010;2023-04-24T01:53:46;14.75;;;9.15;;
70975;SDS011;58635;51.198;6.010;2023-04-24T01:56:12;15.90;;;8.95;;
70975;SDS011;58635;51.198;6.010;2023-04-24T01:58:38;14.18;;;9.02;;
70975;SDS011;58635;51.198;6.010;2023-04-24T02:01:05;12.27;;;9.18;;
70975;SDS011;58635;51.198;6.010;2023-04-24T02:03:31;13.10;;;9.05;;
70975;SDS011;58635;51.198;6.010;2023-04-24T02:05:57;15.82;;;8.93;;
70975;SDS011;58635;51.198;6.010;2023-04-24T02:08:22;17.27;;;9.95;;
70975;SDS011;58635;51.198;6.010;2023-04-24T02:10:47;14.57;;;9.30;;
70975;SDS011;58635;51.198;6.010;2023-04-24T02:13:13;12.48;;;8.18;;
70975;SDS011;58635;51.198;6.010;2023-04-24T02:15:38;15.82;;;9.32;;
70975;SDS011;58635;51.198;6.010;2023-04-24T02:18:03;13.73;;;8.57;;
70975;SDS011;58635;51.198;6.010;2023-04-24T02:20:29;14.38;;;8.70;;
70975;SDS011;58635;51.198;6.010;2023-04-24T02:22:54;14.13;;;9.32;;
70975;SDS011;58635;51.198;6.010;2023-04-24T02:25:20;15.02;;;9.23;;
70975;SDS011;58635;51.198;6.010;2023-04-24T02:27:45;13.63;;;9.27;;
70975;SDS011;58635;51.198;6.010;2023-04-24T02:30:11;14.38;;;8.88;;
70975;SDS011;58635;51.198;6.010;2023-04-24T02:32:36;16.95;;;9.50;;
70975;SDS011;58635;51.198;6.010;2023-04-24T02:35:02;12.55;;;8.70;;
70975;SDS011;58635;51.198;6.010;2023-04-24T02:37:27;12.93;;;9.20;;
70975;SDS011;58635;51.198;6.010;2023-04-24T02:39:52;12.80;;;8.88;;
70975;SDS011;58635;51.198;6.010;2023-04-24T02:42:18;13.88;;;8.90;;
70975;SDS011;58635;51.198;6.010;2023-04-24T02:44:43;14.40;;;8.35;;
70975;SDS011;58635;51.198;6.010;2023-04-24T02:47:08;14.90;;;8.90;;
70975;SDS011;58635;51.198;6.010;2023-04-24T02:49:34;16.33;;;8.65;;
70975;SDS011;58635;51.198;6.010;2023-04-24T02:51:59;15.73;;;8.63;;
70975;SDS011;58635;51.198;6.010;2023-04-24T02:54:25;12.35;;;8.20;;
70975;SDS011;58635;51.198;6.010;2023-04-24T02:56:50;14.60;;;8.90;;
70975;SDS011;58635;51.198;6.010;2023-04-24T02:59:16;14.27;;;9.02;;
70975;SDS011;58635;51.198;6.010;2023-04-24T03:01:41;13.20;;;8.48;;
70975;SDS011;58635;51.198;6.010;2023-04-24T03:04:07;15.32;;;8.50;;
70975;SDS011;58635;51.198;6.010;2023-04-24T03:06:32;13.50;;;8.82;;
70975;SDS011;58635;51.198;6.010;2023-04-24T03:08:57;11.25;;;8.13;;
70975;SDS011;58635;51.198;6.010;2023-04-24T03:11:23;14.50;;;8.85;;
70975;SDS011;58635;51.198;6.010;2023-04-24T03:13:48;12.32;;;8.52;;
70975;SDS011;58635;51.198;6.010;2023-04-24T03:16:14;12.10;;;8.65;;
70975;SDS011;58635;51.198;6.010;2023-04-24T03:18:39;13.18;;;8.10;;
70975;SDS011;58635;51.198;6.010;2023-04-24T03:21:05;13.80;;;7.85;;
70975;SDS011;58635;51.198;6.010;2023-04-24T03:23:30;12.18;;;8.18;;
70975;SDS011;58635;51.198;6.010;2023-04-24T03:25:55;14.20;;;7.85;;
70975;SDS011;58635;51.198;6.010;2023-04-24T03:28:21;14.10;;;8.57;;
70975;SDS011;58635;51.198;6.010;2023-04-24T03:30:46;17.85;;;8.20;;
70975;SDS011;58635;51.198;6.010;2023-04-24T03:33:12;12.60;;;8.02;;
70975;SDS011;58635;51.198;6.010;2023-04-24T03:35:37;14.40;;;8.20;;
70975;SDS011;58635;51.198;6.010;2023-04-24T03:38:03;14.15;;;8.02;;
70975;SDS011;58635;51.198;6.010;2023-04-24T03:40:31;13.00;;;7.90;;
70975;SDS011;58635;51.198;6.010;2023-04-24T03:42:58;11.70;;;7.40;;
70975;SDS011;58635;51.198;6.010;2023-04-24T03:45:24;11.65;;;7.72;;
70975;SDS011;58635;51.198;6.010;2023-04-24T03:47:49;11.18;;;7.55;;
70975;SDS011;58635;51.198;6.010;2023-04-24T03:50:15;11.55;;;7.13;;
70975;SDS011;58635;51.198;6.010;2023-04-24T03:52:40;11.98;;;7.15;;
70975;SDS011;58635;51.198;6.010;2023-04-24T03:55:06;11.15;;;7.32;;
70975;SDS011;58635;51.198;6.010;2023-04-24T03:57:32;10.00;;;7.88;;
70975;SDS011;58635;51.198;6.010;2023-04-24T03:59:57;10.80;;;7.68;;
70975;SDS011;58635;51.198;6.010;2023-04-24T04:02:22;9.07;;;6.70;;
70975;SDS011;58635;51.198;6.010;2023-04-24T04:04:48;10.07;;;6.95;;
70975;SDS011;58635;51.198;6.010;2023-04-24T04:07:13;10.07;;;7.38;;
70975;SDS011;58635;51.198;6.010;2023-04-24T04:09:39;11.20;;;6.88;;
70975;SDS011;58635;51.198;6.010;2023-04-24T04:12:04;10.40;;;7.05;;
70975;SDS011;58635;51.198;6.010;2023-04-24T04:14:29;10.95;;;7.50;;
70975;SDS011;58635;51.198;6.010;2023-04-24T04:16:55;11.13;;;7.72;;
70975;SDS011;58635;51.198;6.010;2023-04-24T04:19:20;11.32;;;7.30;;
70975;SDS011;58635;51.198;6.010;2023-04-24T04:21:46;10.35;;;7.32;;
70975;SDS011;58635;51.198;6.010;2023-04-24T04:24:15;9.57;;;7.20;;
70975;SDS011;58635;51.198;6.010;2023-04-24T04:26:41;13.30;;;7.40;;
70975;SDS011;58635;51.198;6.010;2023-04-24T04:29:06;11.43;;;7.20;;
70975;SDS011;58635;51.198;6.010;2023-04-24T04:31:31;12.07;;;7.88;;
70975;SDS011;58635;51.198;6.010;2023-04-24T04:33:57;11.88;;;8.35;;
70975;SDS011;58635;51.198;6.010;2023-04-24T04:36:22;10.88;;;7.07;;
70975;SDS011;58635;51.198;6.010;2023-04-24T04:38:49;9.18;;;6.93;;
70975;SDS011;58635;51.198;6.010;2023-04-24T04:41:14;10.32;;;7.85;;
70975;SDS011;58635;51.198;6.010;2023-04-24T04:43:41;9.57;;;7.05;;
70975;SDS011;58635;51.198;6.010;2023-04-24T04:46:07;9.27;;;6.70;;
70975;SDS011;58635;51.198;6.010;2023-04-24T04:48:33;9.77;;;7.15;;
70975;SDS011;58635;51.198;6.010;2023-04-24T04:50:59;9.95;;;6.35;;
70975;SDS011;58635;51.198;6.010;2023-04-24T04:53:24;12.82;;;7.00;;
70975;SDS011;58635;51.198;6.010;2023-04-24T04:55:50;9.55;;;7.28;;
70975;SDS011;58635;51.198;6.010;2023-04-24T04:58:16;9.18;;;7.28;;
70975;SDS011;58635;51.198;6.010;2023-04-24T05:00:41;8.82;;;6.88;;
70975;SDS011;58635;51.198;6.010;2023-04-24T05:03:07;10.68;;;7.43;;
70975;SDS011;58635;51.198;6.010;2023-04-24T05:05:32;10.25;;;6.95;;
70975;SDS011;58635;51.198;6.010;2023-04-24T05:07:58;8.10;;;6.68;;
70975;SDS011;58635;51.198;6.010;2023-04-24T05:10:23;12.13;;;7.38;;
70975;SDS011;58635;51.198;6.010;2023-04-24T05:12:49;10.90;;;7.00;;
70975;SDS011;58635;51.198;6.010;2023-04-24T05:15:14;10.70;;;6.90;;
70975;SDS011;58635;51.198;6.010;2023-04-24T05:17:40;9.93;;;7.07;;
70975;SDS011;58635;51.198;6.010;2023-04-24T05:20:05;9.02;;;7.10;;
70975;SDS011;58635;51.198;6.010;2023-04-24T05:22:32;9.15;;;6.80;;
70975;SDS011;58635;51.198;6.010;2023-04-24T05:24:57;9.45;;;6.40;;
70975;SDS011;58635;51.198;6.010;2023-04-24T05:27:23;8.50;;;6.20;;
70975;SDS011;58635;51.198;6.010;2023-04-24T05:29:49;7.03;;;5.85;;
70975;SDS011;58635;51.198;6.010;2023-04-24T05:32:14;8.63;;;6.18;;
70975;SDS011;58635;51.198;6.010;2023-04-24T05:34:40;9.02;;;5.85;;
70975;SDS011;58635;51.198;6.010;2023-04-24T05:37:05;9.40;;;5.45;;
70975;SDS011;58635;51.198;6.010;2023-04-24T05:39:33;8.35;;;5.65;;
70975;SDS011;58635;51.198;6.010;2023-04-24T05:42:00;7.03;;;5.70;;
70975;SDS011;58635;51.198;6.010;2023-04-24T05:44:26;7.65;;;5.50;;
70975;SDS011;58635;51.198;6.010;2023-04-24T05:46:52;7.18;;;5.30;;
70975;SDS011;58635;51.198;6.010;2023-04-24T05:49:17;7.85;;;5.05;;
70975;SDS011;58635;51.198;6.010;2023-04-24T05:51:43;6.35;;;4.93;;
70975;SDS011;58635;51.198;6.010;2023-04-24T05:54:08;6.90;;;4.60;;
70975;SDS011;58635;51.198;6.010;2023-04-24T05:56:33;6.50;;;4.28;;
70975;SDS011;58635;51.198;6.010;2023-04-24T05:58:59;6.32;;;4.22;;
70975;SDS011;58635;51.198;6.010;2023-04-24T06:01:24;8.80;;;4.03;;
70975;SDS011;58635;51.198;6.010;2023-04-24T06:03:50;5.95;;;3.55;;
70975;SDS011;58635;51.198;6.010;2023-04-24T06:06:15;5.05;;;3.15;;
70975;SDS011;58635;51.198;6.010;2023-04-24T06:08:41;4.68;;;3.17;;
70975;SDS011;58635;51.198;6.010;2023-04-24T06:11:07;6.20;;;3.00;;
70975;SDS011;58635;51.198;6.010;2023-04-24T06:13:33;4.85;;;3.17;;
70975;SDS011;58635;51.198;6.010;2023-04-24T06:15:58;4.68;;;2.70;;
70975;SDS011;58635;51.198;6.010;2023-04-24T06:18:23;5.40;;;2.50;;
70975;SDS011;58635;51.198;6.010;2023-04-24T06:20:49;3.88;;;2.28;;
70975;SDS011;58635;51.198;6.010;2023-04-24T06:23:14;6.68;;;2.53;;
70975;SDS011;58635;51.198;6.010;2023-04-24T06:25:40;5.20;;;2.28;;
70975;SDS011;58635;51.198;6.010;2023-04-24T06:28:05;4.18;;;2.08;;
70975;SDS011;58635;51.198;6.010;2023-04-24T06:30:31;3.05;;;1.92;;
70975;SDS011;58635;51.198;6.010;2023-04-24T06:32:56;3.63;;;2.28;;
70975;SDS011;58635;51.198;6.010;2023-04-24T06:35:22;3.58;;;1.80;;
70975;SDS011;58635;51.198;6.010;2023-04-24T06:37:47;3.13;;;1.30;;
70975;SDS011;58635;51.198;6.010;2023-04-24T06:40:13;1.85;;;1.33;;
70975;SDS011;58635;51.198;6.010;2023-04-24T06:42:38;2.08;;;1.30;;
70975;SDS011;58635;51.198;6.010;2023-04-24T06:45:04;1.85;;;0.95;;
70975;SDS011;58635;51.198;6.010;2023-04-24T06:47:30;2.30;;;0.88;;
70975;SDS011;58635;51.198;6.010;2023-04-24T06:49:55;2.25;;;1.05;;
70975;SDS011;58635;51.198;6.010;2023-04-24T06:52:21;3.53;;;1.10;;
70975;SDS011;58635;51.198;6.010;2023-04-24T06:54:46;2.67;;;1.33;;
70975;SDS011;58635;51.198;6.010;2023-04-24T06:57:12;2.05;;;1.00;;
70975;SDS011;58635;51.198;6.010;2023-04-24T06:59:37;1.73;;;0.93;;
70975;SDS011;58635;51.198;6.010;2023-04-24T07:02:03;1.77;;;0.90;;
70975;SDS011;58635;51.198;6.010;2023-04-24T07:04:29;1.52;;;0.77;;
70975;SDS011;58635;51.198;6.010;2023-04-24T07:06:55;1.67;;;0.82;;
70975;SDS011;58635;51.198;6.010;2023-04-24T07:09:21;4.10;;;1.10;;
70975;SDS011;58635;51.198;6.010;2023-04-24T07:11:49;2.60;;;0.90;;
70975;SDS011;58635;51.198;6.010;2023-04-24T07:14:15;2.53;;;1.30;;
70975;SDS011;58635;51.198;6.010;2023-04-24T07:16:41;2.00;;;1.10;;
70975;SDS011;58635;51.198;6.010;2023-04-24T07:19:07;3.10;;;1.60;;
70975;SDS011;58635;51.198;6.010;2023-04-24T07:21:32;3.45;;;1.83;;
70975;SDS011;58635;51.198;6.010;2023-04-24T07:23:58;3.20;;;2.40;;
70975;SDS011;58635;51.198;6.010;2023-04-24T07:26:23;6.38;;;2.65;;
70975;SDS011;58635;51.198;6.010;2023-04-24T07:28:50;5.25;;;2.40;;
70975;SDS011;58635;51.198;6.010;2023-04-24T07:31:16;5.70;;;3.10;;
70975;SDS011;58635;51.198;6.010;2023-04-24T07:33:41;5.28;;;3.50;;
70975;SDS011;58635;51.198;6.010;2023-04-24T07:36:06;5.35;;;3.58;;
70975;SDS011;58635;51.198;6.010;2023-04-24T07:38:32;5.55;;;3.53;;
70975;SDS011;58635;51.198;6.010;2023-04-24T07:40:57;5.57;;;3.55;;
70975;SDS011;58635;51.198;6.010;2023-04-24T07:43:23;6.78;;;3.60;;
70975;SDS011;58635;51.198;6.010;2023-04-24T07:45:49;5.53;;;3.80;;
70975;SDS011;58635;51.198;6.010;2023-04-24T07:48:15;5.72;;;3.63;;
70975;SDS011;58635;51.198;6.010;2023-04-24T07:50:42;5.22;;;3.85;;
70975;SDS011;58635;51.198;6.010;2023-04-24T07:53:08;8.63;;;4.18;;
70975;SDS011;58635;51.198;6.010;2023-04-24T07:55:33;7.88;;;4.40;;
70975;SDS011;58635;51.198;6.010;2023-04-24T07:57:59;8.18;;;4.68;;
70975;SDS011;58635;51.198;6.010;2023-04-24T08:00:24;9.30;;;4.57;;
70975;SDS011;58635;51.198;6.010;2023-04-24T08:02:50;7.65;;;4.18;;
70975;SDS011;58635;51.198;6.010;2023-04-24T08:05:15;7.38;;;4.22;;
70975;SDS011;58635;51.198;6.010;2023-04-24T08:07:41;7.13;;;4.80;;
70975;SDS011;58635;51.198;6.010;2023-04-24T08:10:09;11.77;;;5.32;;
70975;SDS011;58635;51.198;6.010;2023-04-24T08:12:35;9.00;;;4.20;;
70975;SDS011;58635;51.198;6.010;2023-04-24T08:15:02;7.47;;;4.50;;
70975;SDS011;58635;51.198;6.010;2023-04-24T08:17:27;7.97;;;4.72;;
70975;SDS011;58635;51.198;6.010;2023-04-24T08:19:53;7.70;;;4.53;;
70975;SDS011;58635;51.198;6.010;2023-04-24T08:22:26;8.18;;;3.85;;
70975;SDS011;58635;51.198;6.010;2023-04-24T08:24:52;8.05;;;4.10;;
70975;SDS011;58635;51.198;6.010;2023-04-24T08:27:17;6.63;;;4.15;;
70975;SDS011;58635;51.198;6.010;2023-04-24T08:29:43;6.95;;;3.70;;
70975;SDS011;58635;51.198;6.010;2023-04-24T08:32:08;8.82;;;3.90;;
70975;SDS011;58635;51.198;6.010;2023-04-24T08:34:34;7.00;;;3.88;;
70975;SDS011;58635;51.198;6.010;2023-04-24T08:36:59;8.57;;;4.18;;
70975;SDS011;58635;51.198;6.010;2023-04-24T08:39:24;7.35;;;4.00;;
70975;SDS011;58635;51.198;6.010;2023-04-24T08:41:50;9.95;;;4.55;;
70975;SDS011;58635;51.198;6.010;2023-04-24T08:44:17;9.32;;;4.80;;
70975;SDS011;58635;51.198;6.010;2023-04-24T08:46:44;8.70;;;4.82;;
70975;SDS011;58635;51.198;6.010;2023-04-24T08:49:13;9.73;;;4.82;;
70975;SDS011;58635;51.198;6.010;2023-04-24T08:51:41;8.00;;;4.80;;
70975;SDS011;58635;51.198;6.010;2023-04-24T08:54:07;10.60;;;4.95;;
70975;SDS011;58635;51.198;6.010;2023-04-24T08:56:33;9.85;;;4.50;;
70975;SDS011;58635;51.198;6.010;2023-04-24T08:59:03;10.48;;;4.90;;
70975;SDS011;58635;51.198;6.010;2023-04-24T09:01:29;7.93;;;4.53;;
70975;SDS011;58635;51.198;6.010;2023-04-24T09:03:57;7.97;;;5.13;;
70975;SDS011;58635;51.198;6.010;2023-04-24T09:06:27;10.57;;;5.30;;
70975;SDS011;58635;51.198;6.010;2023-04-24T09:08:53;9.45;;;5.10;;
70975;SDS011;58635;51.198;6.010;2023-04-24T09:11:19;9.65;;;4.90;;
70975;SDS011;58635;51.198;6.010;2023-04-24T09:13:45;10.68;;;5.07;;
70975;SDS011;58635;51.198;6.010;2023-04-24T09:16:11;9.38;;;4.53;;
70975;SDS011;58635;51.198;6.010;2023-04-24T09:18:36;10.75;;;4.38;;
70975;SDS011;58635;51.198;6.010;2023-04-24T09:23:29;9.10;;;3.97;;
70975;SDS011;58635;51.198;6.010;2023-04-24T09:25:56;7.32;;;4.03;;
70975;SDS011;58635;51.198;6.010;2023-04-24T09:28:29;8.25;;;3.90;;
70975;SDS011;58635;51.198;6.010;2023-04-24T09:31:05;9.18;;;3.90;;
70975;SDS011;58635;51.198;6.010;2023-04-24T09:33:33;9.32;;;4.28;;
70975;SDS011;58635;51.198;6.010;2023-04-24T09:35:59;10.32;;;3.70;;
70975;SDS011;58635;51.198;6.010;2023-04-24T09:38:35;24.42;;;4.43;;
70975;SDS011;58635;51.198;6.010;2023-04-24T09:41:02;11.00;;;3.90;;
70975;SDS011;58635;51.198;6.010;2023-04-24T09:43:30;11.75;;;4.40;;
70975;SDS011;58635;51.198;6.010;2023-04-24T09:45:56;10.70;;;3.83;;
70975;SDS011;58635;51.198;6.010;2023-04-24T09:48:30;7.68;;;4.50;;
70975;SDS011;58635;51.198;6.010;2023-04-24T09:50:59;10.75;;;3.88;;
70975;SDS011;58635;51.198;6.010;2023-04-24T09:53:27;8.00;;;3.38;;
70975;SDS011;58635;51.198;6.010;2023-04-24T09:55:52;8.32;;;2.83;;
70975;SDS011;58635;51.198;6.010;2023-04-24T09:58:18;10.80;;;3.72;;
70975;SDS011;58635;51.198;6.010;2023-04-24T10:00:51;8.70;;;3.20;;
70975;SDS011;58635;51.198;6.010;2023-04-24T10:03:19;10.10;;;3.90;;
70975;SDS011;58635;51.198;6.010;2023-04-24T10:05:45;8.25;;;3.42;;
70975;SDS011;58635;51.198;6.010;2023-04-24T10:08:12;8.48;;;3.15;;
70975;SDS011;58635;51.198;6.010;2023-04-24T10:10:39;11.35;;;2.90;;
70975;SDS011;58635;51.198;6.010;2023-04-24T10:13:06;10.90;;;2.97;;
70975;SDS011;58635;51.198;6.010;2023-04-24T10:15:33;9.88;;;3.25;;
70975;SDS011;58635;51.198;6.010;2023-04-24T10:18:00;12.27;;;3.50;;
70975;SDS011;58635;51.198;6.010;2023-04-24T10:20:26;10.23;;;3.13;;
70975;SDS011;58635;51.198;6.010;2023-04-24T10:22:56;11.57;;;3.28;;
70975;SDS011;58635;51.198;6.010;2023-04-24T10:25:24;12.85;;;3.42;;
70975;SDS011;58635;51.198;6.010;2023-04-24T10:27:54;9.48;;;3.60;;
70975;SDS011;58635;51.198;6.010;2023-04-24T10:30:24;7.50;;;3.35;;
70975;SDS011;58635;51.198;6.010;2023-04-24T10:32:51;9.27;;;3.42;;
70975;SDS011;58635;51.198;6.010;2023-04-24T10:35:16;9.52;;;3.33;;
70975;SDS011;58635;51.198;6.010;2023-04-24T10:37:48;10.07;;;3.33;;
70975;SDS011;58635;51.198;6.010;2023-04-24T10:40:19;11.20;;;3.30;;
70975;SDS011;58635;51.198;6.010;2023-04-24T10:42:51;10.95;;;3.47;;
70975;SDS011;58635;51.198;6.010;2023-04-24T10:45:20;8.98;;;2.97;;
70975;SDS011;58635;51.198;6.010;2023-04-24T10:48:06;9.77;;;4.00;;
70975;SDS011;58635;51.198;6.010;2023-04-24T10:50:52;12.77;;;2.70;;
70975;SDS011;58635;51.198;6.010;2023-04-24T10:53:19;10.68;;;2.63;;
70975;SDS011;58635;51.198;6.010;2023-04-24T10:55:49;9.52;;;2.70;;
70975;SDS011;58635;51.198;6.010;2023-04-24T10:58:15;9.68;;;2.80;;
70975;SDS011;58635;51.198;6.010;2023-04-24T11:00:42;9.73;;;2.28;;
70975;SDS011;58635;51.198;6.010;2023-04-24T11:03:28;8.77;;;2.63;;
70975;SDS011;58635;51.198;6.010;2023-04-24T11:06:02;9.13;;;2.42;;
70975;SDS011;58635;51.198;6.010;2023-04-24T11:11:02;8.35;;;2.22;;
70975;SDS011;58635;51.198;6.010;2023-04-24T11:16:52;8.15;;;2.85;;
70975;SDS011;58635;51.198;6.010;2023-04-24T11:19:26;7.93;;;2.53;;
70975;SDS011;58635;51.198;6.010;2023-04-24T11:22:13;7.35;;;2.20;;
70975;SDS011;58635;51.198;6.010;2023-04-24T11:24:40;5.30;;;1.73;;
70975;SDS011;58635;51.198;6.010;2023-04-24T11:27:15;5.88;;;1.38;;
70975;SDS011;58635;51.198;6.010;2023-04-24T11:35:01;5.68;;;1.60;;
70975;SDS011;58635;51.198;6.010;2023-04-24T11:40:07;5.95;;;1.80;;
70975;SDS011;58635;51.198;6.010;2023-04-24T11:42:35;5.15;;;1.73;;
70975;SDS011;58635;51.198;6.010;2023-04-24T11:45:01;5.32;;;1.50;;
70975;SDS011;58635;51.198;6.010;2023-04-24T11:47:33;3.83;;;1.27;;
70975;SDS011;58635;51.198;6.010;2023-04-24T11:49:59;3.45;;;1.45;;
70975;SDS011;58635;51.198;6.010;2023-04-24T11:52:26;4.78;;;1.45;;
70975;SDS011;58635;51.198;6.010;2023-04-24T11:54:52;4.18;;;1.73;;
70975;SDS011;58635;51.198;6.010;2023-04-24T11:57:24;3.83;;;1.38;;
70975;SDS011;58635;51.198;6.010;2023-04-24T11:59:53;3.15;;;1.38;;
70975;SDS011;58635;51.198;6.010;2023-04-24T12:02:23;5.32;;;1.48;;
70975;SDS011;58635;51.198;6.010;2023-04-24T12:04:49;5.10;;;1.50;;
70975;SDS011;58635;51.198;6.010;2023-04-24T12:07:15;7.00;;;1.63;;
70975;SDS011;58635;51.198;6.010;2023-04-24T12:09:44;5.93;;;1.40;;
70975;SDS011;58635;51.198;6.010;2023-04-24T12:12:16;4.40;;;1.40;;
70975;SDS011;58635;51.198;6.010;2023-04-24T12:14:43;5.38;;;1.83;;
70975;SDS011;58635;51.198;6.010;2023-04-24T12:17:08;3.70;;;1.60;;
70975;SDS011;58635;51.198;6.010;2023-04-24T12:19:34;5.00;;;1.70;;
70975;SDS011;58635;51.198;6.010;2023-04-24T12:22:00;4.00;;;1.70;;
70975;SDS011;58635;51.198;6.010;2023-04-24T12:24:27;5.63;;;1.67;;
70975;SDS011;58635;51.198;6.010;2023-04-24T12:26:52;3.72;;;1.35;;
70975;SDS011;58635;51.198;6.010;2023-04-24T12:29:21;6.75;;;1.88;;
70975;SDS011;58635;51.198;6.010;2023-04-24T12:31:48;6.00;;;1.70;;
70975;SDS011;58635;51.198;6.010;2023-04-24T12:34:20;5.53;;;1.90;;
70975;SDS011;58635;51.198;6.010;2023-04-24T12:36:47;5.18;;;1.80;;
70975;SDS011;58635;51.198;6.010;2023-04-24T12:39:19;8.00;;;2.00;;
70975;SDS011;58635;51.198;6.010;2023-04-24T12:41:57;4.20;;;1.52;;
70975;SDS011;58635;51.198;6.010;2023-04-24T12:44:30;6.80;;;2.38;;
70975;SDS011;58635;51.198;6.010;2023-04-24T12:47:00;6.10;;;1.90;;
70975;SDS011;58635;51.198;6.010;2023-04-24T12:49:26;4.57;;;1.77;;
70975;SDS011;58635;51.198;6.010;2023-04-24T12:51:52;6.50;;;1.92;;
70975;SDS011;58635;51.198;6.010;2023-04-24T12:54:17;6.15;;;1.90;;
70975;SDS011;58635;51.198;6.010;2023-04-24T12:56:43;6.47;;;1.75;;
70975;SDS011;58635;51.198;6.010;2023-04-24T12:59:08;5.28;;;1.67;;
70975;SDS011;58635;51.198;6.010;2023-04-24T13:01:34;9.10;;;1.80;;
70975;SDS011;58635;51.198;6.010;2023-04-24T13:03:59;7.47;;;1.92;;
70975;SDS011;58635;51.198;6.010;2023-04-24T13:06:24;5.13;;;1.50;;
70975;SDS011;58635;51.198;6.010;2023-04-24T13:08:51;3.95;;;1.83;;
70975;SDS011;58635;51.198;6.010;2023-04-24T13:11:16;5.07;;;1.67;;
70975;SDS011;58635;51.198;6.010;2023-04-24T13:13:42;4.15;;;1.60;;
70975;SDS011;58635;51.198;6.010;2023-04-24T13:16:08;6.90;;;1.67;;
70975;SDS011;58635;51.198;6.010;2023-04-24T13:18:33;8.45;;;1.77;;
70975;SDS011;58635;51.198;6.010;2023-04-24T13:20:59;5.53;;;1.88;;
70975;SDS011;58635;51.198;6.010;2023-04-24T13:23:24;5.45;;;1.80;;
70975;SDS011;58635;51.198;6.010;2023-04-24T13:25:49;5.43;;;1.30;;
70975;SDS011;58635;51.198;6.010;2023-04-24T13:28:15;5.90;;;1.52;;
70975;SDS011;58635;51.198;6.010;2023-04-24T13:30:40;7.07;;;1.80;;
70975;SDS011;58635;51.198;6.010;2023-04-24T13:33:06;3.92;;;1.40;;
70975;SDS011;58635;51.198;6.010;2023-04-24T13:35:31;4.82;;;1.60;;
70975;SDS011;58635;51.198;6.010;2023-04-24T13:37:57;4.75;;;1.60;;
70975;SDS011;58635;51.198;6.010;2023-04-24T13:40:23;7.97;;;2.63;;
70975;SDS011;58635;51.198;6.010;2023-04-24T13:42:48;6.50;;;1.98;;
70975;SDS011;58635;51.198;6.010;2023-04-24T13:45:14;4.78;;;2.00;;
70975;SDS011;58635;51.198;6.010;2023-04-24T13:47:39;3.78;;;1.38;;
70975;SDS011;58635;51.198;6.010;2023-04-24T13:50:06;4.28;;;1.45;;
70975;SDS011;58635;51.198;6.010;2023-04-24T13:52:33;5.28;;;1.60;;
70975;SDS011;58635;51.198;6.010;2023-04-24T13:54:58;4.20;;;1.50;;
70975;SDS011;58635;51.198;6.010;2023-04-24T13:57:24;6.50;;;1.63;;
70975;SDS011;58635;51.198;6.010;2023-04-24T13:59:49;4.88;;;1.60;;
70975;SDS011;58635;51.198;6.010;2023-04-24T14:02:15;6.28;;;1.70;;
70975;SDS011;58635;51.198;6.010;2023-04-24T14:04:40;6.88;;;1.55;;
70975;SDS011;58635;51.198;6.010;2023-04-24T14:07:06;6.65;;;1.70;;
70975;SDS011;58635;51.198;6.010;2023-04-24T14:09:32;4.32;;;1.40;;
70975;SDS011;58635;51.198;6.010;2023-04-24T14:11:58;3.42;;;1.42;;
70975;SDS011;58635;51.198;6.010;2023-04-24T14:14:24;4.07;;;1.40;;
70975;SDS011;58635;51.198;6.010;2023-04-24T14:16:49;4.95;;;1.42;;
70975;SDS011;58635;51.198;6.010;2023-04-24T14:19:15;3.38;;;1.65;;
70975;SDS011;58635;51.198;6.010;2023-04-24T14:21:40;3.67;;;1.30;;
70975;SDS011;58635;51.198;6.010;2023-04-24T14:24:05;4.60;;;1.50;;
70975;SDS011;58635;51.198;6.010;2023-04-24T14:26:31;5.47;;;1.35;;
70975;SDS011;58635;51.198;6.010;2023-04-24T14:28:56;3.63;;;1.15;;
70975;SDS011;58635;51.198;6.010;2023-04-24T14:31:23;3.40;;;1.50;;
70975;SDS011;58635;51.198;6.010;2023-04-24T14:33:49;4.82;;;1.40;;
70975;SDS011;58635;51.198;6.010;2023-04-24T14:36:14;5.25;;;1.25;;
70975;SDS011;58635;51.198;6.010;2023-04-24T14:38:40;2.92;;;1.23;;
70975;SDS011;58635;51.198;6.010;2023-04-24T14:41:05;4.50;;;1.63;;
70975;SDS011;58635;51.198;6.010;2023-04-24T14:43:34;3.85;;;2.03;;
70975;SDS011;58635;51.198;6.010;2023-04-24T14:46:00;3.50;;;1.55;;
70975;SDS011;58635;51.198;6.010;2023-04-24T14:48:26;3.97;;;1.35;;
70975;SDS011;58635;51.198;6.010;2023-04-24T14:50:51;5.10;;;1.50;;
70975;SDS011;58635;51.198;6.010;2023-04-24T14:53:17;2.92;;;1.30;;
70975;SDS011;58635;51.198;6.010;2023-04-24T14:55:43;5.93;;;1.60;;